createdAt,value
2023-10-29T00:02:35.878Z,98388.94
2023-10-29T00:05:09.201Z,98515.13
2023-10-29T00:07:39.087Z,98489.47
2023-10-29T00:10:21.262Z,98381.44
2023-10-29T00:13:09.728Z,98429.81
2023-10-29T00:15:43.662Z,98497.47
2023-10-29T00:18:38.777Z,98364.59
2023-10-29T00:21:16.088Z,98543.22
2023-10-29T00:23:48.397Z,98505.75
2023-10-29T00:26:19.102Z,98498.34
2023-10-29T00:28:52.536Z,98553.28
2023-10-29T00:31:21.646Z,98548.03
2023-10-29T00:33:49.804Z,98545.78
2023-10-29T00:36:17.700Z,98543.44
2023-10-29T00:38:45.909Z,98534.66
2023-10-29T00:41:15.100Z,98532.72
2023-10-29T00:43:43.687Z,98482.53
2023-10-29T00:46:15.903Z,98534.66
2023-10-29T00:48:44.868Z,98501.75
2023-10-29T00:51:14.348Z,98511.28
2023-10-29T00:53:43.528Z,98503.25
2023-10-29T00:56:12.940Z,98512.25
2023-10-29T00:58:42.224Z,98507.41
2023-10-29T01:01:11.606Z,98499.59
2023-10-29T01:03:42.712Z,98508.19
2023-10-29T01:06:13.792Z,98509.16
2023-10-29T01:08:43.443Z,98509.78
2023-10-29T01:11:11.451Z,98520.31
2023-10-29T01:13:40.180Z,98510.63
2023-10-29T01:16:09.335Z,98528.13
2023-10-29T01:18:37.742Z,98504.56
2023-10-29T01:21:10.000Z,98503.88
2023-10-29T01:23:38.982Z,98500.03
2023-10-29T01:26:08.576Z,98488.56
2023-10-29T01:28:36.750Z,98475.06
2023-10-29T01:31:06.461Z,98493.69
2023-10-29T01:33:34.870Z,98490.69
2023-10-29T01:36:02.849Z,98484.91
2023-10-29T01:38:33.561Z,98450.41
2023-10-29T01:41:01.916Z,98463.25
2023-10-29T01:43:30.408Z,98430.03
2023-10-29T01:45:58.586Z,98420.72
2023-10-29T01:48:27.079Z,98438.38
2023-10-29T01:50:55.109Z,98451.69
2023-10-29T01:53:23.760Z,98442.44
2023-10-29T01:55:53.338Z,98440.63
2023-10-29T01:58:21.940Z,98448.44
2023-10-29T02:00:50.129Z,98398.81
2023-10-29T02:03:18.668Z,98434.06
2023-10-29T02:05:46.892Z,98439.19
2023-10-29T02:08:15.319Z,98404.28
2023-10-29T02:10:44.280Z,98402.91
2023-10-29T02:13:15.927Z,98414.53
2023-10-29T02:15:44.775Z,98381.75
2023-10-29T02:18:13.566Z,98414.22
2023-10-29T02:20:41.566Z,98412.06
2023-10-29T02:23:10.941Z,98403.69
2023-10-29T02:25:40.262Z,98400.16
2023-10-29T02:28:08.475Z,98397.47
2023-10-29T02:30:36.585Z,98406.13
2023-10-29T02:33:04.680Z,98405.94
2023-10-29T02:35:32.777Z,98385.75
2023-10-29T02:38:02.438Z,98393.72
2023-10-29T02:40:32.343Z,98392.00
2023-10-29T02:43:00.827Z,98382.97
2023-10-29T02:45:28.836Z,98369.47
2023-10-29T02:47:57.343Z,98364.22
2023-10-29T02:50:25.397Z,98373.09
2023-10-29T02:52:53.922Z,98372.03
2023-10-29T02:55:21.981Z,98366.88
2023-10-29T02:57:51.252Z,98373.25
2023-10-29T03:00:20.493Z,98361.53
2023-10-29T03:02:49.188Z,98352.50
2023-10-29T03:05:19.874Z,98358.91
2023-10-29T03:07:50.414Z,98341.34
2023-10-29T03:10:18.650Z,98358.19
2023-10-29T03:12:47.043Z,98368.34
2023-10-29T03:15:17.260Z,98357.84
2023-10-29T03:17:45.773Z,98353.72
2023-10-29T03:20:17.465Z,98353.00
2023-10-29T03:22:45.654Z,98357.38
2023-10-29T03:25:14.292Z,98359.72
2023-10-29T03:27:42.713Z,98354.09
2023-10-29T03:30:11.690Z,98356.84
2023-10-29T03:32:42.536Z,98352.91
2023-10-29T03:35:10.466Z,98346.81
2023-10-29T03:37:38.941Z,98275.25
2023-10-29T03:40:08.602Z,98308.97
2023-10-29T03:42:37.068Z,98355.66
2023-10-29T03:45:06.024Z,98345.38
2023-10-29T03:47:34.318Z,98363.38
2023-10-29T03:50:05.611Z,98355.19
2023-10-29T03:52:34.473Z,98345.78
2023-10-29T03:55:02.849Z,98333.81
2023-10-29T03:57:30.999Z,98333.81
2023-10-29T03:59:59.471Z,98354.69
2023-10-29T04:02:28.082Z,98348.47
2023-10-29T04:05:06.162Z,98338.72
2023-10-29T04:07:38.921Z,98339.69
2023-10-29T04:10:10.568Z,98347.03
2023-10-29T04:12:38.730Z,98204.88
2023-10-29T04:15:08.963Z,98322.84
2023-10-29T04:17:37.708Z,98300.44
2023-10-29T04:20:07.249Z,98316.19
2023-10-29T04:22:35.423Z,98301.78
2023-10-29T04:25:05.690Z,98202.94
2023-10-29T04:27:33.762Z,98297.78
2023-10-29T04:30:02.052Z,98288.78
2023-10-29T04:32:30.601Z,98276.78
2023-10-29T04:34:58.597Z,98282.59
2023-10-29T04:37:27.207Z,98270.91
2023-10-29T04:39:55.275Z,98219.41
2023-10-29T04:42:24.827Z,98244.09
2023-10-29T04:44:53.212Z,98248.81
2023-10-29T04:47:21.129Z,98254.09
2023-10-29T04:49:50.104Z,98260.56
2023-10-29T04:52:20.434Z,98264.84
2023-10-29T04:54:48.358Z,98267.66
2023-10-29T04:57:20.968Z,98279.72
2023-10-29T04:59:50.779Z,98257.53
2023-10-29T05:02:19.343Z,98271.94
2023-10-29T05:04:47.479Z,98255.09
2023-10-29T05:07:15.500Z,98241.91
2023-10-29T05:09:43.648Z,98235.31
2023-10-29T05:12:12.769Z,98248.19
2023-10-29T05:14:40.870Z,98260.72
2023-10-29T05:17:11.935Z,98272.19
2023-10-29T05:19:40.958Z,98259.94
2023-10-29T05:22:09.408Z,98281.97
2023-10-29T05:24:37.890Z,98301.78
2023-10-29T05:27:06.347Z,98299.09
2023-10-29T05:29:35.167Z,98308.56
2023-10-29T05:32:03.780Z,98291.47
2023-10-29T05:34:34.660Z,98260.09
2023-10-29T05:37:02.613Z,98171.81
2023-10-29T05:39:30.860Z,98256.34
2023-10-29T05:41:59.167Z,98269.34
2023-10-29T05:44:27.858Z,98262.28
2023-10-29T05:46:55.790Z,98132.69
2023-10-29T05:49:24.382Z,98263.88
2023-10-29T05:51:53.904Z,98196.91
2023-10-29T05:54:21.859Z,98293.66
2023-10-29T05:56:49.891Z,98178.56
2023-10-29T05:59:19.798Z,98283.16
2023-10-29T06:01:48.028Z,98291.06
2023-10-29T06:04:16.261Z,98278.13
2023-10-29T06:06:44.260Z,98279.59
2023-10-29T06:09:23.639Z,98283.25
2023-10-29T06:11:54.399Z,98260.50
2023-10-29T06:14:24.138Z,98288.63
2023-10-29T06:17:01.338Z,98300.56
2023-10-29T06:19:34.634Z,98270.00
2023-10-29T06:22:02.731Z,98323.28
2023-10-29T06:24:33.075Z,98222.91
2023-10-29T06:27:01.302Z,98320.50
2023-10-29T06:29:29.600Z,98329.75
2023-10-29T06:31:58.384Z,98336.34
2023-10-29T06:34:26.835Z,98328.13
2023-10-29T06:36:55.175Z,98336.59
2023-10-29T06:39:24.853Z,98327.91
2023-10-29T06:41:54.501Z,98346.44
2023-10-29T06:44:23.159Z,98331.56
2023-10-29T06:46:52.128Z,98333.28
2023-10-29T06:49:20.625Z,98335.59
2023-10-29T06:51:49.798Z,98333.16
2023-10-29T06:54:17.891Z,98324.03
2023-10-29T06:56:46.338Z,98333.81
2023-10-29T06:59:15.727Z,98241.25
2023-10-29T07:01:44.382Z,98316.22
2023-10-29T07:04:12.873Z,98195.94
2023-10-29T07:06:43.550Z,98323.31
2023-10-29T07:09:12.075Z,98327.25
2023-10-29T07:11:41.567Z,98331.38
2023-10-29T07:14:09.641Z,98344.59
2023-10-29T07:16:39.939Z,98347.50
2023-10-29T07:19:07.968Z,98340.44
2023-10-29T07:21:37.247Z,98352.53
2023-10-29T07:24:06.343Z,98316.00
2023-10-29T07:26:34.849Z,98273.97
2023-10-29T07:29:03.545Z,98328.00
2023-10-29T07:31:31.639Z,98326.06
2023-10-29T07:34:01.681Z,98247.78
2023-10-29T07:36:30.286Z,98323.25
2023-10-29T07:38:59.152Z,98334.84
2023-10-29T07:41:27.788Z,98317.91
2023-10-29T07:43:56.349Z,98314.81
2023-10-29T07:46:24.852Z,98202.63
2023-10-29T07:48:53.387Z,98198.84
2023-10-29T07:51:22.948Z,98332.41
2023-10-29T07:53:51.852Z,98337.78
2023-10-29T07:56:20.729Z,98331.06
2023-10-29T07:58:50.376Z,98346.47
2023-10-29T08:01:20.169Z,98346.13
2023-10-29T08:03:49.816Z,98353.78
2023-10-29T08:06:18.097Z,98339.41
2023-10-29T08:08:48.085Z,98356.13
2023-10-29T08:11:20.657Z,98361.16
2023-10-29T08:13:49.235Z,98356.13
2023-10-29T08:16:18.529Z,98362.72
2023-10-29T08:18:46.761Z,98356.91
2023-10-29T08:21:16.307Z,98366.41
2023-10-29T08:23:44.771Z,98361.38
2023-10-29T08:26:15.315Z,98356.00
2023-10-29T08:28:43.847Z,98270.88
2023-10-29T08:31:13.774Z,98265.34
2023-10-29T08:33:41.832Z,98363.25
2023-10-29T08:36:10.214Z,98354.69
2023-10-29T08:38:38.396Z,98359.09
2023-10-29T08:41:16.711Z,98348.59
2023-10-29T08:43:45.737Z,98332.69
2023-10-29T08:46:14.753Z,98364.81
2023-10-29T08:48:43.158Z,98268.44
2023-10-29T08:51:13.287Z,98373.25
2023-10-29T08:53:41.961Z,98395.50
2023-10-29T08:56:10.028Z,98403.81
2023-10-29T08:58:40.092Z,98402.13
2023-10-29T09:01:09.046Z,98407.72
2023-10-29T09:03:37.739Z,98384.72
2023-10-29T09:06:07.318Z,98430.59
2023-10-29T09:08:35.838Z,98433.75
2023-10-29T09:11:04.473Z,98420.34
2023-10-29T09:13:33.224Z,98405.31
2023-10-29T09:16:03.240Z,98345.28
2023-10-29T09:18:31.775Z,98425.00
2023-10-29T09:21:00.186Z,98400.75
2023-10-29T09:23:30.410Z,98430.25
2023-10-29T09:25:58.664Z,98431.59
2023-10-29T09:28:28.086Z,98418.00
2023-10-29T09:30:56.333Z,98437.34
2023-10-29T09:33:25.741Z,98445.06
2023-10-29T09:35:54.357Z,98436.06
2023-10-29T09:38:22.803Z,98450.38
2023-10-29T09:40:55.097Z,98402.66
2023-10-29T09:43:28.982Z,98454.97
2023-10-29T09:45:57.452Z,98462.19
2023-10-29T09:48:28.992Z,98391.69
2023-10-29T09:50:57.463Z,98392.13
2023-10-29T09:53:26.388Z,98433.78
2023-10-29T09:55:56.901Z,98429.59
2023-10-29T09:58:25.251Z,98468.69
2023-10-29T10:00:53.604Z,98468.97
2023-10-29T10:03:22.088Z,98477.03
2023-10-29T10:05:51.861Z,98472.66
2023-10-29T10:08:25.638Z,98470.28
2023-10-29T10:10:54.201Z,98467.75
2023-10-29T10:13:37.619Z,98482.22
2023-10-29T10:16:10.560Z,98485.63
2023-10-29T10:18:52.727Z,98473.53
2023-10-29T10:21:24.394Z,98484.66
2023-10-29T10:23:53.974Z,98464.34
2023-10-29T10:26:30.342Z,98477.31
2023-10-29T10:28:59.949Z,98470.91
2023-10-29T10:31:28.905Z,98459.19
2023-10-29T10:34:13.094Z,98473.88
2023-10-29T10:36:43.130Z,98463.94
2023-10-29T10:39:12.667Z,98456.00
2023-10-29T10:41:43.802Z,98456.06
2023-10-29T10:44:14.455Z,98453.16
2023-10-29T10:46:50.642Z,98453.53
2023-10-29T10:49:19.795Z,98451.66
2023-10-29T10:51:51.221Z,98436.50
2023-10-29T10:54:20.361Z,98436.50
2023-10-29T10:56:50.269Z,98456.72
2023-10-29T10:59:19.054Z,98468.22
2023-10-29T11:01:47.126Z,98450.09
2023-10-29T11:04:16.259Z,98452.28
2023-10-29T11:06:45.347Z,98467.72
2023-10-29T11:09:18.504Z,98466.38
2023-10-29T11:11:49.036Z,98458.53
2023-10-29T11:14:18.449Z,98464.41
2023-10-29T11:16:53.475Z,98467.47
2023-10-29T11:19:47.226Z,98468.41
2023-10-29T11:22:17.339Z,98479.19
2023-10-29T11:25:06.860Z,98457.03
2023-10-29T11:27:36.720Z,98461.53
2023-10-29T11:30:15.812Z,98467.19
2023-10-29T11:32:45.364Z,98454.97
2023-10-29T11:35:21.616Z,98462.66
2023-10-29T11:37:51.028Z,98469.25
2023-10-29T11:40:35.582Z,98459.97
2023-10-29T11:43:18.069Z,98450.66
2023-10-29T11:46:00.016Z,98467.84
2023-10-29T11:48:31.441Z,98468.25
2023-10-29T11:51:19.608Z,98455.22
2023-10-29T11:53:48.502Z,98457.59
2023-10-29T11:56:20.069Z,98453.91
2023-10-29T11:58:48.018Z,98458.31
2023-10-29T12:01:22.389Z,98419.78
2023-10-29T12:03:54.483Z,98434.47
2023-10-29T12:06:22.916Z,98448.13
2023-10-29T12:08:51.235Z,98465.88
2023-10-29T12:11:28.547Z,98467.78
2023-10-29T12:13:56.560Z,98460.31
2023-10-29T12:16:24.536Z,98492.13
2023-10-29T12:18:53.006Z,98454.19
2023-10-29T12:21:21.568Z,98481.59
2023-10-29T12:23:50.772Z,98461.44
2023-10-29T12:26:20.709Z,98463.84
2023-10-29T12:28:50.617Z,98461.53
2023-10-29T12:31:26.123Z,98473.22
2023-10-29T12:33:58.179Z,98385.47
2023-10-29T12:36:27.245Z,98409.50
2023-10-29T12:38:55.966Z,98456.16
2023-10-29T12:41:28.863Z,98474.47
2023-10-29T12:43:57.218Z,98470.28
2023-10-29T12:46:27.221Z,98463.00
2023-10-29T12:48:59.439Z,98452.53
2023-10-29T12:51:28.288Z,98442.94
2023-10-29T12:54:12.379Z,98444.00
2023-10-29T12:56:53.197Z,98433.72
2023-10-29T12:59:22.511Z,98431.44
2023-10-29T13:01:51.761Z,98403.53
2023-10-29T13:04:21.044Z,98421.84
2023-10-29T13:06:49.109Z,98379.72
2023-10-29T13:09:19.631Z,98405.22
2023-10-29T13:11:48.024Z,98400.84
2023-10-29T13:14:17.377Z,98413.66
2023-10-29T13:16:46.968Z,98391.22
2023-10-29T13:19:15.708Z,98411.00
2023-10-29T13:21:43.932Z,98395.00
2023-10-29T13:24:13.311Z,98390.56
2023-10-29T13:26:42.256Z,98398.47
2023-10-29T13:29:13.755Z,98418.97
2023-10-29T13:31:44.383Z,98365.22
2023-10-29T13:34:14.435Z,98412.59
2023-10-29T13:36:43.060Z,98398.47
2023-10-29T13:39:12.180Z,98403.22
2023-10-29T13:41:41.442Z,98380.91
2023-10-29T13:44:09.796Z,98309.56
2023-10-29T13:46:38.022Z,98393.56
2023-10-29T13:49:07.916Z,98291.28
2023-10-29T13:51:36.774Z,98403.88
2023-10-29T13:54:05.593Z,98392.16
2023-10-29T13:56:34.362Z,98402.66
2023-10-29T13:59:02.551Z,98395.72
2023-10-29T14:01:30.851Z,98424.00
2023-10-29T14:03:59.739Z,98266.66
2023-10-29T14:06:31.425Z,98348.63
2023-10-29T14:08:59.807Z,98455.09
2023-10-29T14:11:29.577Z,98465.88
2023-10-29T14:13:59.413Z,98456.97
2023-10-29T14:16:38.962Z,98437.16
2023-10-29T14:19:07.932Z,98449.38
2023-10-29T14:21:37.842Z,98455.00
2023-10-29T14:24:09.083Z,98442.41
2023-10-29T14:26:38.005Z,98384.94
2023-10-29T14:29:06.397Z,98370.25
2023-10-29T14:31:36.044Z,98349.91
2023-10-29T14:34:05.137Z,98302.41
2023-10-29T14:36:33.665Z,98243.25
2023-10-29T14:39:03.734Z,98300.91
2023-10-29T14:41:32.479Z,98354.41
2023-10-29T14:44:01.135Z,98297.03
2023-10-29T14:46:29.394Z,98363.88
2023-10-29T14:48:57.403Z,98249.41
2023-10-29T14:51:25.500Z,98378.66
2023-10-29T14:53:53.877Z,98203.75
2023-10-29T14:56:24.995Z,98356.66
2023-10-29T14:58:54.139Z,98241.09
2023-10-29T15:01:25.131Z,98349.53
2023-10-29T15:03:54.329Z,98270.13
2023-10-29T15:06:22.771Z,98329.13
2023-10-29T15:08:51.408Z,98286.06
2023-10-29T15:11:33.743Z,98263.78
2023-10-29T15:14:07.146Z,98242.69
2023-10-29T15:16:35.722Z,98323.75
2023-10-29T15:19:06.402Z,98348.59
2023-10-29T15:21:35.770Z,98316.44
2023-10-29T15:24:05.425Z,98196.78
2023-10-29T15:26:33.819Z,98270.75
2023-10-29T15:29:02.529Z,98265.50
2023-10-29T15:31:33.300Z,98250.63
2023-10-29T15:34:02.199Z,98218.38
2023-10-29T15:36:41.189Z,98225.44
2023-10-29T15:39:10.317Z,98271.50
2023-10-29T15:41:43.774Z,98305.34
2023-10-29T15:44:26.170Z,98346.13
2023-10-29T15:47:10.818Z,98175.19
2023-10-29T15:49:44.825Z,98313.97
2023-10-29T15:52:29.477Z,98154.91
2023-10-29T15:55:00.002Z,98146.38
2023-10-29T15:57:28.079Z,98275.41
2023-10-29T16:03:17.909Z,98252.31
2023-10-29T16:05:51.921Z,98261.97
2023-10-29T16:08:26.478Z,98185.31
2023-10-29T16:11:23.429Z,98312.63
2023-10-29T16:14:15.299Z,98217.38
2023-10-29T16:17:19.261Z,98121.97
2023-10-29T16:20:06.938Z,98150.88
2023-10-29T16:22:58.449Z,98285.97
2023-10-29T16:25:36.096Z,98331.97
2023-10-29T16:28:20.910Z,98311.91
2023-10-29T16:31:00.541Z,98186.19
2023-10-29T16:33:47.260Z,98267.59
2023-10-29T16:36:29.014Z,98340.38
2023-10-29T16:39:10.180Z,98187.88
2023-10-29T16:41:42.664Z,98264.91
2023-10-29T16:44:31.968Z,98199.84
2023-10-29T16:47:02.312Z,98155.66
2023-10-29T16:49:53.394Z,98288.84
2023-10-29T16:53:07.805Z,98210.44
2023-10-29T16:55:46.896Z,98344.78
2023-10-29T16:59:35.600Z,98377.06
2023-10-29T17:01:32.421Z,98359.34
2023-10-29T17:04:00.838Z,98309.72
2023-10-29T17:06:36.840Z,98414.44
2023-10-29T17:09:12.796Z,98238.16
2023-10-29T17:12:04.069Z,98374.47
2023-10-29T17:14:48.130Z,98252.69
2023-10-29T17:17:34.993Z,98223.75
2023-10-29T17:20:31.607Z,98283.09
2023-10-29T17:23:30.038Z,98390.13
2023-10-29T17:26:26.021Z,98255.47
2023-10-29T17:28:56.518Z,98250.69
2023-10-29T17:31:38.218Z,98278.94
2023-10-29T17:34:16.696Z,98277.16
2023-10-29T17:36:49.750Z,98420.91
2023-10-29T17:39:33.047Z,98291.69
2023-10-29T17:42:02.996Z,98420.16
2023-10-29T17:44:31.679Z,98314.28
2023-10-29T17:46:59.994Z,98432.75
2023-10-29T17:49:28.225Z,98425.78
2023-10-29T17:51:56.321Z,98294.16
2023-10-29T17:54:26.120Z,98439.06
2023-10-29T17:56:55.108Z,98397.81
2023-10-29T17:59:26.270Z,98459.97
2023-10-29T18:01:54.419Z,98435.81
2023-10-29T18:04:23.090Z,98449.16
2023-10-29T18:06:52.558Z,98361.25
2023-10-29T18:09:31.634Z,98457.56
2023-10-29T18:12:13.193Z,98397.69
2023-10-29T18:14:56.225Z,98302.75
2023-10-29T18:17:40.851Z,98417.53
2023-10-29T18:20:32.583Z,98461.09
2023-10-29T18:23:14.065Z,98420.56
2023-10-29T18:26:17.813Z,98369.25
2023-10-29T18:29:01.222Z,98416.03
2023-10-29T18:32:10.238Z,98433.47
2023-10-29T18:34:58.421Z,98396.09
2023-10-29T18:41:07.809Z,98437.16
2023-10-29T18:46:42.993Z,98443.91
2023-10-29T18:49:18.568Z,98412.75
2023-10-29T18:51:52.651Z,98501.25
2023-10-29T18:54:44.926Z,98519.13
2023-10-29T18:57:19.152Z,98399.91
2023-10-29T19:00:05.111Z,98448.25
2023-10-29T19:03:06.376Z,98331.41
2023-10-29T19:05:39.867Z,98349.44
2023-10-29T19:08:18.870Z,98461.44
2023-10-29T19:10:57.751Z,98474.56
2023-10-29T19:13:34.338Z,98458.50
2023-10-29T19:16:20.486Z,98411.66
2023-10-29T19:19:03.966Z,98406.66
2023-10-29T19:22:07.143Z,98532.59
2023-10-29T19:24:47.489Z,98361.91
2023-10-29T19:27:27.888Z,98535.03
2023-10-29T19:30:27.970Z,98458.53
2023-10-29T19:33:03.565Z,98369.28
2023-10-29T19:35:37.472Z,98485.75
2023-10-29T19:38:25.757Z,98527.38
2023-10-29T19:41:11.390Z,98489.84
2023-10-29T19:43:52.830Z,98402.50
2023-10-29T19:46:28.939Z,98530.19
2023-10-29T19:49:05.029Z,98569.53
2023-10-29T19:51:33.316Z,98576.28
2023-10-29T19:54:03.187Z,98566.75
2023-10-29T19:56:31.468Z,98475.69
2023-10-29T19:59:01.175Z,98524.25
2023-10-29T20:01:29.246Z,98572.22
2023-10-29T20:03:59.089Z,98596.66
2023-10-29T20:06:30.475Z,98558.91
2023-10-29T20:08:58.930Z,98596.44
2023-10-29T20:11:31.866Z,98454.44
2023-10-29T20:14:04.328Z,98455.31
2023-10-29T20:16:54.194Z,98575.00
2023-10-29T20:19:33.375Z,98609.09
2023-10-29T20:22:06.158Z,98605.69
2023-10-29T20:24:42.136Z,98468.19
2023-10-29T20:27:20.069Z,98439.13
2023-10-29T20:29:50.551Z,98478.69
2023-10-29T20:32:23.744Z,98585.94
2023-10-29T20:34:57.372Z,98492.63
2023-10-29T20:37:31.813Z,98515.91
2023-10-29T20:40:11.674Z,98495.72
2023-10-29T20:43:10.296Z,98500.44
2023-10-29T20:45:44.520Z,98621.97
2023-10-29T20:48:32.444Z,98523.16
2023-10-29T20:51:06.949Z,98529.16
2023-10-29T20:53:37.845Z,98630.78
2023-10-29T20:56:09.093Z,98650.09
2023-10-29T20:58:47.205Z,98491.47
2023-10-29T21:01:18.049Z,98499.44
2023-10-29T21:03:47.399Z,98606.72
2023-10-29T21:06:30.983Z,98644.72
2023-10-29T21:11:59.672Z,98535.00
2023-10-29T21:14:38.826Z,98615.16
2023-10-29T21:17:33.567Z,98682.72
2023-10-29T21:20:30.024Z,98640.28
2023-10-29T21:23:05.359Z,98567.50
2023-10-29T21:25:51.464Z,98519.84
2023-10-29T21:28:23.341Z,98688.91
2023-10-29T21:31:02.498Z,98656.69
2023-10-29T21:33:42.059Z,98620.97
2023-10-29T21:36:42.178Z,98636.97
2023-10-29T21:39:10.628Z,98527.91
2023-10-29T21:41:44.533Z,98516.78
2023-10-29T21:44:16.636Z,98657.81
2023-10-29T21:46:57.919Z,98567.31
2023-10-29T21:49:45.474Z,98676.50
2023-10-29T21:52:34.440Z,98660.38
2023-10-29T21:55:18.767Z,98538.69
2023-10-29T21:58:09.405Z,98549.75
2023-10-29T22:01:16.104Z,98579.28
2023-10-29T22:03:56.926Z,98684.13
2023-10-29T22:06:42.489Z,98733.44
2023-10-29T22:09:34.339Z,98703.25
2023-10-29T22:12:11.463Z,98681.13
2023-10-29T22:14:42.132Z,98594.31
2023-10-29T22:17:25.067Z,98750.09
2023-10-29T22:20:10.636Z,98758.56
2023-10-29T22:22:55.168Z,98631.00
2023-10-29T22:25:58.971Z,98649.88
2023-10-29T22:28:37.188Z,98641.91
2023-10-29T22:31:50.096Z,98759.97
2023-10-29T22:34:24.464Z,98589.97
2023-10-29T22:36:59.908Z,98587.94
2023-10-29T22:39:44.109Z,98752.97
2023-10-29T22:42:15.958Z,98693.00
2023-10-29T22:44:45.431Z,98679.91
2023-10-29T22:47:17.768Z,98790.34
2023-10-29T22:49:52.315Z,98745.28
2023-10-29T22:52:32.861Z,98814.97
2023-10-29T22:55:01.493Z,98653.47
2023-10-29T22:57:32.093Z,98611.88
2023-10-29T23:00:04.174Z,98766.88
2023-10-29T23:02:35.278Z,98751.50
2023-10-29T23:05:05.612Z,98752.09
2023-10-29T23:07:37.068Z,98680.28
2023-10-29T23:10:09.360Z,98819.47
2023-10-29T23:12:44.951Z,98642.59
2023-10-29T23:15:25.349Z,98631.03
2023-10-29T23:17:59.743Z,98668.63
2023-10-29T23:20:28.403Z,98654.00
2023-10-29T23:23:25.387Z,98667.34
2023-10-29T23:26:06.201Z,98671.47
2023-10-29T23:28:52.108Z,98825.25
2023-10-29T23:31:20.927Z,98802.13
2023-10-29T23:33:55.993Z,98684.22
2023-10-29T23:36:24.352Z,98715.50
2023-10-29T23:39:03.804Z,98693.84
2023-10-29T23:41:34.267Z,98772.72
2023-10-29T23:44:06.086Z,98771.81
2023-10-29T23:46:34.793Z,98770.88
2023-10-29T23:49:06.420Z,98731.53
2023-10-29T23:51:38.722Z,98813.84
2023-10-29T23:54:09.360Z,98760.25
2023-10-29T23:56:53.511Z,98709.78
2023-10-29T23:59:43.840Z,98679.34
